Saturday, November 18, 2017, 12:08 PM GMT
Back to Local

CYFC, Fredericton, N. B.

Location: , , Canada Lat: 45.867
Local Time: 12:08 PM GMT (12:08 GMT) Lon: -66.533
Time Zone: GMT Elev: 55 ft

Show me the last for .
Show Decoded

2017-11-18 11:00 METAR CYFC 181100Z AUTO 28012G19KT 240V310 9SM OVC021 M03/M07 A2982 RMK SLP099 =
2017-11-18 10:00 METAR CYFC 181000Z AUTO 27007G16KT 240V310 9SM OVC023 M03/M07 A2978 RMK SLP088 =
2017-11-18 09:00 METAR CYFC 180900Z AUTO 30012G18KT 240V310 9SM OVC023 M03/M07 A2977 RMK SLP082 =
2017-11-18 08:01 METAR CYFC 180801Z AUTO 30010G15KT 260V320 9SM BKN023 M03/M07 A2975 RMK SLP075 =
2017-11-18 08:00 METAR CYFC 180800Z AUTO 29009G19KT 260V320 9SM SCT023 M03/M07 A2975 RMK SLP075 =
2017-11-18 07:22 METAR CYFC 180722Z AUTO 29011G18KT 250V330 9SM SCT023 M03/M07 A2973 RMK SLP069 =
2017-11-18 07:00 METAR CYFC 180700Z AUTO 30010G18KT 250V320 9SM BKN023 M03/M07 A2972 RMK SLP066 =
2017-11-18 06:55 METAR CYFC 180655Z AUTO 28007G23KT 250V330 9SM BKN023 M03/M07 A2972 RMK SLP066 =
2017-11-18 06:00 METAR CYFC 180600Z AUTO 30015G23KT 9SM BKN025 M02/M07 A2972 RMK SLP067 =
2017-11-18 05:00 METAR CYFC 180500Z AUTO 30014G23KT 260V320 9SM OVC025 M02/M06 A2972 RMK SLP065 =
2017-11-18 04:00 METAR CYFC 180400Z AUTO 31017G26KT 9SM OVC025 M02/M06 A2970 RMK SLP061 =
2017-11-18 03:00 METAR CYFC 180300Z AUTO 30020G33KT 9SM OVC027 M01/M06 A2968 RMK SLP054 =
2017-11-18 02:00 METAR CYFC 180200Z AUTO 30014G25KT 9SM OVC027 M01/M05 A2967 RMK SLP048 =
2017-11-18 01:00 METAR CYFC 180100Z AUTO 29016G24KT 9SM BKN027 OVC130 M00/M05 A2963 RMK SLP036 =
2017-11-18 00:00 METAR CYFC 180000Z AUTO 30015G31KT 9SM OVC027 M00/M04 A2962 RMK SLP031 =
2017-11-17 23:00 METAR CYFC 172300Z AUTO 28018G31KT 260V330 9SM OVC025 00/M04 A2960 RMK SLP027 =
2017-11-17 22:00 METAR CYFC 172200Z AUTO 30020G27KT 9SM OVC025 01/M03 A2958 RMK SLP019 =
2017-11-17 21:00 METAR CYFC 172100Z AUTO 29019G27KT 9SM OVC025 01/M02 A2955 RMK SLP008 =
2017-11-17 20:53 METAR CYFC 172053Z AUTO 29011G25KT 260V330 9SM OVC025 01/M02 A2954 RMK SLP007 =
2017-11-17 20:41 METAR CYFC 172041Z AUTO 28015G24KT 260V320 9SM OVC023 02/M02 A2954 RMK SLP007 =
2017-11-17 20:15 METAR CYFC 172015Z AUTO 28018G31KT 9SM OVC025 02/M02 A2953 RMK SLP001 =
2017-11-17 20:00 METAR CYFC 172000Z AUTO 28019G30KT 250V320 9SM OVC023 02/M02 A2952 RMK PRESRR
                 SLP000 =
2017-11-17 19:46 METAR CYFC 171946Z AUTO 28014G26KT 250V320 9SM OVC023 02/M01 A2951 RMK SLP995 =
2017-11-17 19:23 METAR CYFC 171923Z AUTO 30014G27KT 240V310 9SM BKN025 OVC030 02/M01 A2949 RMK
                 SLP989 =
2017-11-17 19:07 METAR CYFC 171907Z AUTO 30017G31KT 9SM BKN025 OVC031 03/M01 A2948 RMK SLP986 =
2017-11-17 19:05 METAR CYFC 171905Z AUTO 29019G31KT 9SM BKN021 OVC028 03/M01 A2948 RMK SLP985
2017-11-17 19:00 METAR CYFC 171900Z AUTO 29017G33KT 9SM SCT021 OVC028 03/M00 A2947 RMK SLP983 =
2017-11-17 18:49 METAR CYFC 171849Z AUTO 30016G34KT 260V320 9SM SCT021 OVC028 03/M00 A2947 RMK
                 SLP982 =
2017-11-17 18:45 METAR CYFC 171845Z AUTO 28012G25KT 260V320 9SM BKN021 OVC030 03/00 A2947 RMK
                 PRESRR SLP982 =
2017-11-17 18:20 METAR CYFC 171820Z AUTO 28018G32KT 260V320 9SM SCT024 OVC033 03/00 A2945 RMK
                 SLP975 =
2017-11-17 18:19 METAR CYFC 171819Z AUTO 28017G32KT 260V320 9SM FEW019 BKN024 OVC033 03/00 A2945
                 RMK SLP975 =
2017-11-17 18:16 METAR CYFC 171816Z AUTO 29013G22KT 260V320 9SM SCT021 BKN026 OVC032 04/01 A2945
                 RMK SLP975 =
2017-11-17 18:14 METAR CYFC 171814Z AUTO 29014G22KT 9SM BKN024 OVC032 04/00 A2945 RMK SLP974 =
2017-11-17 18:00 METAR CYFC 171800Z AUTO 29017G28KT 9SM BKN025 OVC032 04/01 A2944 RMK SLP972 =
2017-11-17 17:57 METAR CYFC 171757Z AUTO 28015G26KT 9SM BKN025 OVC032 04/01 A2944 RMK SLP972 =
2017-11-17 17:49 METAR CYFC 171749Z AUTO 29013G23KT 9SM BKN023 OVC029 04/01 A2944 RMK SLP971 =
2017-11-17 17:44 METAR CYFC 171744Z AUTO 28017G23KT 9SM SCT021 BKN027 OVC032 04/01 A2943 RMK
                 SLP970 =
2017-11-17 17:43 METAR CYFC 171743Z AUTO 28018G23KT 9SM BKN023 OVC030 04/01 A2943 RMK SLP970 =
2017-11-17 17:38 METAR CYFC 171738Z AUTO 28011G25KT 9SM BKN025 OVC032 04/01 A2943 RMK SLP970 =
2017-11-17 17:31 METAR CYFC 171731Z AUTO 29015G23KT 250V320 9SM BKN021 OVC029 04/01 A2943 RMK
                 SLP970 =
2017-11-17 17:30 METAR CYFC 171730Z AUTO 29013G23KT 250V320 9SM SCT021 OVC027 04/01 A2943 RMK
                 SLP969 =
2017-11-17 17:00 METAR CYFC 171700Z AUTO 29013G24KT 9SM BKN022 OVC028 05/02 A2942 RMK SLP964 =
2017-11-17 16:59 METAR CYFC 171659Z AUTO 29012G24KT 260V320 9SM SCT020 OVC025 04/02 A2941 RMK
                 SLP963 =
2017-11-17 16:53 METAR CYFC 171653Z AUTO 28014G23KT 240V320 9SM BKN022 OVC029 04/02 A2941 RMK
                 SLP963 =
2017-11-17 16:52 METAR CYFC 171652Z AUTO 28014G23KT 240V320 9SM SCT019 OVC026 04/02 A2941 RMK
                 SLP963 =
2017-11-17 16:42 METAR CYFC 171642Z AUTO 28012G19KT 250V320 9SM BKN022 OVC029 05/03 A2941 RMK
                 SLP961 =
2017-11-17 16:33 METAR CYFC 171633Z AUTO 29011G19KT 9SM FEW018 OVC025 04/02 A2940 RMK SLP958 =
2017-11-17 16:30 METAR CYFC 171630Z AUTO 27011G23KT 9SM BKN022 OVC028 04/02 A2940 RMK SLP959 =
2017-11-17 16:28 METAR CYFC 171628Z AUTO 29009G23KT 9SM FEW018 OVC025 04/02 A2940 RMK SLP959 =
2017-11-17 16:26 METAR CYFC 171626Z AUTO 28011G23KT 250V320 9SM BKN021 OVC025 04/02 A2940 RMK
                 SLP958 =
2017-11-17 16:25 METAR CYFC 171625Z AUTO 28012G23KT 250V320 9SM SCT019 OVC025 04/02 A2940 RMK
                 SLP958 =
2017-11-17 16:17 METAR CYFC 171617Z AUTO 29012G24KT 250V320 9SM FEW017 BKN022 BKN027 OVC042 04/02
                 A2940 RMK SLP957 =
2017-11-17 16:15 METAR CYFC 171615Z AUTO 29014G24KT 250V310 9SM SCT020 BKN025 OVC031 04/02 A2940
                 RMK SLP957 =
2017-11-17 16:14 METAR CYFC 171614Z AUTO 28014G24KT 250V310 9SM BKN023 OVC031 04/02 A2940 RMK
                 SLP957 =
2017-11-17 16:11 METAR CYFC 171611Z AUTO 28014G23KT 9SM -RA FEW016 BKN023 OVC031 04/02 A2940 RMK
                 SLP957 =
2017-11-17 16:09 METAR CYFC 171609Z AUTO 28011G23KT 9SM -RA FEW015 SCT020 BKN025 OVC031 04/02
                 A2940 RMK SLP957 =
2017-11-17 16:00 METAR CYFC 171600Z AUTO 29015G24KT 9SM -RA FEW015 BKN021 BKN027 OVC033 04/03
                 A2940 RMK SLP957 =
2017-11-17 15:38 METAR CYFC 171538Z AUTO 29012G21KT 250V320 9SM -RA BKN021 OVC035 04/02 A2939 RMK
                 SLP955 =
2017-11-17 15:08 METAR CYFC 171508Z AUTO 30013G20KT 9SM SCT017 BKN024 OVC029 04/02 A2938 RMK
                 SLP953 =
2017-11-17 15:06 METAR CYFC 171506Z AUTO 30013G22KT 9SM SCT020 OVC027 04/02 A2938 RMK SLP953 =
2017-11-17 15:00 METAR CYFC 171500Z AUTO 30015G23KT 250V320 9SM BKN021 OVC027 04/02 A2938 RMK
                 SLP951 =
2017-11-17 14:45 METAR CYFC 171445Z AUTO 30012G22KT 270V330 9SM BKN019 OVC024 03/02 A2938 RMK
                 SLP950 =
2017-11-17 14:19 METAR CYFC 171419Z AUTO 29015G22KT 6SM -RA BR FEW018 OVC023 02/02 A2936 RMK
                 SLP944 =
2017-11-17 14:12 METAR CYFC 171412Z AUTO 29015G23KT 260V320 5SM -RA BR FEW011 OVC021 02/02 A2935
                 RMK SLP943 =
2017-11-17 14:08 METAR CYFC 171408Z AUTO 30013G23KT 5SM -RA -UP BR FEW009 OVC023 02/01 A2935 RMK
                 SLP942 =
2017-11-17 14:06 METAR CYFC 171406Z AUTO 30013G23KT 6SM -RA -UP BR FEW012 OVC023 02/01 A2935 RMK
                 SLP942 =
2017-11-17 14:03 METAR CYFC 171403Z AUTO 30014G23KT 6SM -UP BR FEW009 OVC021 02/01 A2935 RMK
                 SLP941 =
2017-11-17 14:00 METAR CYFC 171400Z AUTO 30012G23KT 7SM -SN -UP FEW009 OVC021 02/01 A2935 RMK
                 SLP941 =
2017-11-17 13:57 METAR CYFC 171357Z AUTO 29014G23KT 7SM -SN -UP FEW009 OVC019 02/01 A2935 RMK
                 SLP941 =
2017-11-17 13:53 METAR CYFC 171353Z AUTO 30013G23KT 7SM -SN FEW009 OVC019 02/01 A2935 RMK SLP940
                 =
2017-11-17 13:43 METAR CYFC 171343Z AUTO 29015G26KT 8SM RASN SCT007 OVC019 01/01 A2934 RMK SLP938
                 =
2017-11-17 13:39 METAR CYFC 171339Z AUTO 29015G26KT 6SM -SN SCT007 OVC017 01/01 A2934 RMK SLP937
                 =
2017-11-17 13:32 METAR CYFC 171332Z AUTO 29014G23KT 3SM -SN SCT007 OVC013 01/01 A2933 RMK SLP936
                 =
2017-11-17 13:27 METAR CYFC 171327Z AUTO 29016G23KT 2 1/4SM -SN SCT007 OVC015 01/01 A2933 RMK VIS
                 VRB 1 3/4-3 SLP935 =
2017-11-17 13:22 METAR CYFC 171322Z AUTO 30015G25KT 2 1/4SM -SN -UP FEW007 SCT011 OVC017 01/01
                 A2933 RMK SLP935 =
2017-11-17 13:21 METAR CYFC 171321Z AUTO 30015G25KT 2 1/4SM RASN -UP FEW007 SCT011 OVC017 02/01
                 A2933 RMK VIS VRB 1 3/4-3 SLP935 =
2017-11-17 13:18 METAR CYFC 171318Z AUTO 30015G28KT 2 1/2SM RA -UP BR FEW009 OVC017 02/01 A2933
                 RMK SLP935 =
2017-11-17 13:16 METAR CYFC 171316Z AUTO 30017G28KT 3SM RA -UP BR FEW011 SCT014 OVC019 02/01
                 A2933 RMK SLP935 =
2017-11-17 13:12 METAR CYFC 171312Z AUTO 30017G28KT 5SM -RA BR FEW011 SCT017 OVC021 02/02 A2933
                 RMK SLP934 =
2017-11-17 13:00 METAR CYFC 171300Z AUTO 29012G21KT 260V320 6SM -RA BR SCT014 OVC023 02/02 A2932
                 RMK SLP931 =
2017-11-17 12:53 METAR CYFC 171253Z AUTO 29013G24KT 4SM -RA BR SCT013 OVC023 02/02 A2932 RMK
                 SLP930 =
2017-11-17 12:47 METAR CYFC 171247Z AUTO 29013G24KT 4SM -RA -UP BR FEW010 SCT015 OVC021 02/01
                 A2932 RMK SLP930 =
2017-11-17 12:31 METAR CYFC 171231Z AUTO 28011G20KT 4SM -UP BR BKN012 OVC018 02/01 A2931 RMK
                 SLP929 =
2017-11-17 12:26 METAR CYFC 171226Z AUTO 29013G20KT 5SM RA -UP BR BKN012 OVC018 02/01 A2931 RMK
                 SLP928 =
2017-11-17 12:25 METAR CYFC 171225Z AUTO 28013G20KT 6SM RA -UP BR BKN012 OVC018 02/02 A2931 RMK
                 SLP928 =

Support USWX by starting your Amazon purchase here.